Decoded Metar for KOEB (COLDWATER in MI, USA) (IATA:OEB) | Meteo·Mobile Aviation Weather
aviador You're here:

KOEB Decoded Metar

COLDWATER in MI, USA
Report Time2018-09-19 20:55:00
UTC Time2018-09-19 21:14:27
Flight Rules vfr VFR
Wind150° at 04 kt
W.Decomp.*RWY 16: 4.0 kt HW 0.3 kt LCW
RWY 22: 1.7 kt HW 3.6 kt LCW
RWY 07: 0.3 kt HW 4.0 kt RCW
W.Rank150° ranks 10
Current wind is below 150° avg. (5.8)
Visibility9999 m
Phenomena:N/A
Clouds:N/A
Expected CloudBase > 3,600 ft AGL from Temp-Dew spread
CeilingNone
Temp26°C (ISA +13)
Dew Point17°C (58% RH)
QNH1017 hPa
Density Alt2,572 ft
Elevation958 ft
Report Wrong Elevation
Raw Report
KOEB 192055Z AUTO 15004KT 10SM CLR 26/17 A3004 RMK AO2
T02550172=

Extra information for KOEB:More info

Metar Taf Metar & Taf Last 4 Metars F.Rules Stats Wind Profile Meteogram Temp Stats Airport Information Weather charts Add Link Nearby VenuesMetar ALERT Operation Metar Decoded Social comments

AIRNAV info for KOEB